createdAt,value
2022-09-11T00:00:00.188Z,90.48
2022-09-11T00:02:27.855Z,90.50
2022-09-11T00:04:55.584Z,91.45
2022-09-11T00:07:23.195Z,93.15
2022-09-11T00:09:50.806Z,93.02
2022-09-11T00:12:18.399Z,93.15
2022-09-11T00:14:46.027Z,93.11
2022-09-11T00:17:15.715Z,92.45
2022-09-11T00:19:43.387Z,92.66
2022-09-11T00:22:11.719Z,92.01
2022-09-11T00:24:39.324Z,91.85
2022-09-11T00:27:06.975Z,92.91
2022-09-11T00:29:34.889Z,93.36
2022-09-11T00:32:02.956Z,92.55
2022-09-11T00:34:30.706Z,92.75
2022-09-11T00:36:58.315Z,93.33
2022-09-11T00:39:26.001Z,92.38
2022-09-11T00:41:53.610Z,92.73
2022-09-11T00:44:23.954Z,91.97
2022-09-11T00:47:01.734Z,91.64
2022-09-11T00:49:37.569Z,92.13
2022-09-11T00:52:21.350Z,92.42
2022-09-11T00:54:58.734Z,92.75
2022-09-11T00:57:34.957Z,92.79
2022-09-11T01:00:05.721Z,93.61
2022-09-11T01:02:38.412Z,93.51
2022-09-11T01:05:07.552Z,93.65
2022-09-11T01:07:37.367Z,93.85
2022-09-11T01:10:07.986Z,94.81
2022-09-11T01:13:04.975Z,95.03
2022-09-11T01:16:38.182Z,95.33
2022-09-11T01:20:00.505Z,96.06
2022-09-11T01:22:42.691Z,95.93
2022-09-11T01:25:50.807Z,96.09
2022-09-11T01:28:37.374Z,95.71
2022-09-11T01:31:12.950Z,95.47
2022-09-11T01:34:14.944Z,95.48
2022-09-11T01:36:55.570Z,95.35
2022-09-11T01:39:40.123Z,95.24
2022-09-11T01:42:17.301Z,94.90
2022-09-11T01:44:54.419Z,95.75
2022-09-11T01:47:23.364Z,94.86
2022-09-11T01:50:09.540Z,95.36
2022-09-11T01:53:00.755Z,95.54
2022-09-11T01:55:41.549Z,95.37
2022-09-11T01:58:24.506Z,95.97
2022-09-11T02:01:07.356Z,95.44
2022-09-11T02:03:51.855Z,95.57
2022-09-11T02:06:39.978Z,96.07
2022-09-11T02:09:15.163Z,96.13
2022-09-11T02:11:46.010Z,96.22
2022-09-11T02:14:49.481Z,96.47
2022-09-11T02:18:02.060Z,96.47
2022-09-11T02:20:31.543Z,96.15
2022-09-11T02:23:00.044Z,97.12
2022-09-11T02:25:27.781Z,95.96
2022-09-11T02:27:55.640Z,95.84
2022-09-11T02:30:23.628Z,96.26
2022-09-11T02:32:51.295Z,95.67
2022-09-11T02:35:19.011Z,96.43
2022-09-11T02:38:36.975Z,96.44
2022-09-11T02:41:22.044Z,96.36
2022-09-11T02:44:42.512Z,95.92
2022-09-11T02:47:49.170Z,96.53
2022-09-11T02:50:33.330Z,96.59
2022-09-11T02:53:40.320Z,96.40
2022-09-11T02:56:16.505Z,96.64
2022-09-11T02:59:05.857Z,95.64
2022-09-11T03:02:02.208Z,96.09
2022-09-11T03:04:31.503Z,95.99
2022-09-11T03:07:00.385Z,96.77
2022-09-11T03:09:28.099Z,96.42
2022-09-11T03:11:55.769Z,96.41
2022-09-11T03:14:23.444Z,96.16
2022-09-11T03:16:51.114Z,96.58
2022-09-11T03:19:20.202Z,96.10
2022-09-11T03:21:47.854Z,95.76
2022-09-11T03:24:17.247Z,96.61
2022-09-11T03:26:45.982Z,96.30
2022-09-11T03:29:14.050Z,96.31
2022-09-11T03:31:42.597Z,96.30
2022-09-11T03:34:11.025Z,96.29
2022-09-11T03:36:38.780Z,96.79
2022-09-11T03:39:06.721Z,96.88
2022-09-11T03:41:34.365Z,96.95
2022-09-11T03:44:02.331Z,97.55
2022-09-11T03:46:29.934Z,97.26
2022-09-11T03:48:57.606Z,97.47
2022-09-11T03:51:26.560Z,97.22
2022-09-11T03:53:54.247Z,97.24
2022-09-11T03:56:21.826Z,97.39
2022-09-11T03:58:49.587Z,96.93
2022-09-11T04:01:19.495Z,97.40
2022-09-11T04:03:47.167Z,98.04
2022-09-11T04:06:14.766Z,98.14
2022-09-11T04:08:42.477Z,97.42
2022-09-11T04:11:12.564Z,98.11
2022-09-11T04:13:44.022Z,98.15
2022-09-11T04:16:17.268Z,97.75
2022-09-11T04:18:47.524Z,97.62
2022-09-11T04:21:18.561Z,97.54
2022-09-11T04:23:53.907Z,97.62
2022-09-11T04:26:25.799Z,97.99
2022-09-11T04:28:53.493Z,99.04
2022-09-11T04:31:22.675Z,98.51
2022-09-11T04:33:52.357Z,98.17
2022-09-11T04:36:24.773Z,98.75
2022-09-11T04:38:58.021Z,98.51
2022-09-11T04:41:26.792Z,97.62
2022-09-11T04:44:05.285Z,96.06
2022-09-11T04:46:34.561Z,96.68
2022-09-11T04:49:05.133Z,96.58
2022-09-11T04:51:36.855Z,96.10
2022-09-11T04:54:05.996Z,96.32
2022-09-11T04:56:39.877Z,96.22
2022-09-11T04:59:16.233Z,96.11
2022-09-11T05:01:44.616Z,96.55
2022-09-11T05:04:14.948Z,96.62
2022-09-11T05:06:45.492Z,95.98
2022-09-11T05:09:31.520Z,95.82
2022-09-11T05:11:59.271Z,95.73
2022-09-11T05:14:29.185Z,95.37
2022-09-11T05:16:56.972Z,93.90
2022-09-11T05:19:25.755Z,93.81
2022-09-11T05:21:53.663Z,93.44
2022-09-11T05:24:21.506Z,93.83
2022-09-11T05:26:49.393Z,93.76
2022-09-11T05:29:17.486Z,92.21
2022-09-11T05:31:46.125Z,92.33
2022-09-11T05:34:13.827Z,92.80
2022-09-11T05:36:41.938Z,92.75
2022-09-11T05:39:10.824Z,91.96
2022-09-11T05:41:38.570Z,91.89
2022-09-11T05:44:06.412Z,92.05
2022-09-11T05:46:34.446Z,91.77
2022-09-11T05:49:02.434Z,91.05
2022-09-11T05:51:33.888Z,90.36
2022-09-11T05:54:01.637Z,88.65
2022-09-11T05:56:30.239Z,86.78
2022-09-11T05:58:58.848Z,87.03
2022-09-11T06:01:28.993Z,87.01
2022-09-11T06:03:58.111Z,87.13
2022-09-11T06:06:26.221Z,87.53
2022-09-11T06:08:53.870Z,87.38
2022-09-11T06:11:22.893Z,86.72
2022-09-11T06:13:51.522Z,79.97
2022-09-11T06:16:25.352Z,81.83
2022-09-11T06:18:54.840Z,81.18
2022-09-11T06:21:27.365Z,75.32
2022-09-11T06:23:55.142Z,73.90
2022-09-11T06:26:27.707Z,66.43
2022-09-11T06:28:56.760Z,61.50
2022-09-11T06:31:27.373Z,70.66
2022-09-11T06:33:55.968Z,70.37
2022-09-11T06:36:27.479Z,70.87
2022-09-11T06:38:58.056Z,78.15
2022-09-11T06:41:28.412Z,79.28
2022-09-11T06:43:56.936Z,80.31
2022-09-11T06:46:26.540Z,79.57
2022-09-11T06:48:55.887Z,79.20
2022-09-11T06:51:24.610Z,80.85
2022-09-11T06:53:58.754Z,79.24
2022-09-11T06:56:27.102Z,78.04
2022-09-11T06:58:55.319Z,77.71
2022-09-11T07:01:24.888Z,77.75
2022-09-11T07:03:56.286Z,76.67
2022-09-11T07:06:30.436Z,75.90
2022-09-11T07:09:02.606Z,76.55
2022-09-11T07:11:35.101Z,76.03
2022-09-11T07:14:06.051Z,76.72
2022-09-11T07:16:35.447Z,72.69
2022-09-11T07:19:04.434Z,64.36
2022-09-11T07:21:35.646Z,71.47
2022-09-11T07:24:04.789Z,73.90
2022-09-11T07:26:33.120Z,73.01
2022-09-11T07:29:01.469Z,72.25
2022-09-11T07:31:33.223Z,71.65
2022-09-11T07:34:04.827Z,71.41
2022-09-11T07:36:35.992Z,70.65
2022-09-11T07:39:05.126Z,72.10
2022-09-11T07:41:35.064Z,71.09
2022-09-11T07:44:04.199Z,70.13
2022-09-11T07:46:33.103Z,70.48
2022-09-11T07:49:03.094Z,69.56
2022-09-11T07:51:35.339Z,69.83
2022-09-11T07:54:05.119Z,69.24
2022-09-11T07:56:36.323Z,69.25
2022-09-11T07:59:09.039Z,68.74
2022-09-11T08:01:37.822Z,69.37
2022-09-11T08:04:11.505Z,68.22
2022-09-11T08:06:41.565Z,67.43
2022-09-11T08:09:15.220Z,68.26
2022-09-11T08:11:48.941Z,68.30
2022-09-11T08:14:17.942Z,67.46
2022-09-11T08:16:46.348Z,67.46
2022-09-11T08:19:21.896Z,65.96
2022-09-11T08:21:53.126Z,67.28
2022-09-11T08:24:24.506Z,66.41
2022-09-11T08:26:53.300Z,66.24
2022-09-11T08:29:22.637Z,66.49
2022-09-11T08:31:51.303Z,64.97
2022-09-11T08:34:22.413Z,65.39
2022-09-11T08:36:52.164Z,65.03
2022-09-11T08:39:20.636Z,65.21
2022-09-11T08:42:09.179Z,63.99
2022-09-11T08:44:56.666Z,64.34
2022-09-11T08:47:35.109Z,64.05
2022-09-11T08:50:21.335Z,63.09
2022-09-11T08:52:50.887Z,62.30
2022-09-11T08:55:39.597Z,62.66
2022-09-11T08:58:59.669Z,64.17
2022-09-11T09:01:56.790Z,62.62
2022-09-11T09:05:01.548Z,64.35
2022-09-11T09:07:48.697Z,60.91
2022-09-11T09:11:14.270Z,61.77
2022-09-11T09:13:55.483Z,62.48
2022-09-11T09:16:45.505Z,61.59
2022-09-11T09:19:29.782Z,63.86
2022-09-11T09:22:23.895Z,64.96
2022-09-11T09:25:00.424Z,65.82
2022-09-11T09:27:39.429Z,65.23
2022-09-11T09:30:23.665Z,62.31
2022-09-11T09:33:26.010Z,63.82
2022-09-11T09:35:55.850Z,62.64
2022-09-11T09:38:30.169Z,62.49
2022-09-11T09:41:59.175Z,60.93
2022-09-11T09:45:21.706Z,59.78
2022-09-11T09:47:51.278Z,59.59
2022-09-11T09:50:44.041Z,62.25
2022-09-11T09:53:41.680Z,63.45
2022-09-11T09:56:17.470Z,62.67
2022-09-11T09:59:15.234Z,64.29
2022-09-11T10:01:54.125Z,62.02
2022-09-11T10:04:27.185Z,62.25
2022-09-11T10:07:20.896Z,63.04
2022-09-11T10:09:57.840Z,63.17
2022-09-11T10:12:31.587Z,61.90
2022-09-11T10:15:04.840Z,62.02
2022-09-11T10:17:38.520Z,61.17
2022-09-11T10:20:18.747Z,60.55
2022-09-11T10:22:48.510Z,59.89
2022-09-11T10:25:30.265Z,59.71
2022-09-11T10:28:19.564Z,59.55
2022-09-11T10:31:00.425Z,58.65
2022-09-11T10:33:37.186Z,58.65
2022-09-11T10:36:10.098Z,58.09
2022-09-11T10:38:45.364Z,59.48
2022-09-11T10:41:15.118Z,59.02
2022-09-11T10:44:00.512Z,57.96
2022-09-11T10:46:42.335Z,61.47
2022-09-11T10:49:21.245Z,60.08
2022-09-11T10:52:08.947Z,61.88
2022-09-11T10:55:04.411Z,60.70
2022-09-11T10:57:53.457Z,60.67
2022-09-11T11:00:28.049Z,61.07
2022-09-11T11:03:18.530Z,60.29
2022-09-11T11:06:33.898Z,61.02
2022-09-11T11:09:41.498Z,60.39
2022-09-11T11:12:42.266Z,60.45
2022-09-11T11:15:59.672Z,59.52
2022-09-11T11:18:46.770Z,59.32
2022-09-11T11:21:42.112Z,59.40
2022-09-11T11:24:50.170Z,59.87
2022-09-11T11:27:34.064Z,60.52
2022-09-11T11:31:03.098Z,61.29
2022-09-11T11:34:17.007Z,62.92
2022-09-11T11:37:07.304Z,63.28
2022-09-11T11:40:24.505Z,59.90
2022-09-11T11:43:17.625Z,57.37
2022-09-11T11:46:02.877Z,56.88
2022-09-11T11:48:56.173Z,59.48
2022-09-11T11:51:30.779Z,61.74
2022-09-11T11:54:20.456Z,61.96
2022-09-11T11:57:14.632Z,65.26
2022-09-11T12:00:11.065Z,65.90
2022-09-11T12:03:12.407Z,65.06
2022-09-11T12:05:40.943Z,65.91
2022-09-11T12:08:17.048Z,65.03
2022-09-11T12:10:59.451Z,65.65
2022-09-11T12:13:37.393Z,64.41
2022-09-11T12:16:35.046Z,63.15
2022-09-11T12:19:21.761Z,64.42
2022-09-11T12:22:04.317Z,64.23
2022-09-11T12:24:59.049Z,64.21
2022-09-11T12:27:33.841Z,63.39
2022-09-11T12:30:16.281Z,64.17
2022-09-11T12:32:49.847Z,64.58
2022-09-11T12:35:49.514Z,63.92
2022-09-11T12:38:39.731Z,64.22
2022-09-11T12:41:28.814Z,63.61
2022-09-11T12:43:59.200Z,64.58
2022-09-11T12:46:28.491Z,63.25
2022-09-11T12:49:22.298Z,63.21
2022-09-11T12:51:59.652Z,62.72
2022-09-11T12:54:39.127Z,63.15
2022-09-11T12:57:19.377Z,62.62
2022-09-11T12:59:59.782Z,62.36
2022-09-11T13:02:42.615Z,61.61
2022-09-11T13:05:34.682Z,60.13
2022-09-11T13:08:32.348Z,59.59
2022-09-11T13:11:44.029Z,59.01
2022-09-11T13:14:28.626Z,59.88
2022-09-11T13:17:31.013Z,60.25
2022-09-11T13:20:07.925Z,59.13
2022-09-11T13:22:38.709Z,57.44
2022-09-11T13:25:22.349Z,57.27
2022-09-11T13:28:01.416Z,58.66
2022-09-11T13:30:31.149Z,57.36
2022-09-11T13:33:09.471Z,57.98
2022-09-11T13:35:46.829Z,57.11
2022-09-11T13:38:35.828Z,57.13
2022-09-11T13:41:20.189Z,54.94
2022-09-11T13:43:58.367Z,53.33
2022-09-11T13:46:32.335Z,54.58
2022-09-11T13:49:13.102Z,53.57
2022-09-11T13:51:48.839Z,53.01
2022-09-11T13:54:35.155Z,52.50
2022-09-11T13:57:03.385Z,54.21
2022-09-11T13:59:48.287Z,55.54
2022-09-11T14:02:45.489Z,57.23
2022-09-11T14:05:31.559Z,59.02
2022-09-11T14:08:04.870Z,57.97
2022-09-11T14:10:47.463Z,57.11
2022-09-11T14:13:51.517Z,56.64
2022-09-11T14:16:33.470Z,56.27
2022-09-11T14:19:32.847Z,55.93
2022-09-11T14:22:26.264Z,55.58
2022-09-11T14:25:20.913Z,56.75
2022-09-11T14:27:53.260Z,56.82
2022-09-11T14:30:40.794Z,57.16
2022-09-11T14:33:23.301Z,57.32
2022-09-11T14:36:07.455Z,56.58
2022-09-11T14:38:38.460Z,56.82
2022-09-11T14:41:08.483Z,56.85
2022-09-11T14:43:41.325Z,56.15
2022-09-11T14:46:10.735Z,57.19
2022-09-11T14:48:43.195Z,57.86
2022-09-11T14:51:13.682Z,57.01
2022-09-11T14:53:43.677Z,58.49
2022-09-11T14:56:13.227Z,59.07
2022-09-11T14:58:42.577Z,59.36
2022-09-11T15:01:14.059Z,59.11
2022-09-11T15:03:42.581Z,60.33
2022-09-11T15:06:20.639Z,61.31
2022-09-11T15:08:49.148Z,61.18
2022-09-11T15:11:18.881Z,61.55
2022-09-11T15:14:10.848Z,62.74
2022-09-11T15:16:36.122Z,64.29
2022-09-11T15:19:04.715Z,65.53
2022-09-11T15:21:36.889Z,67.95
2022-09-11T15:24:07.061Z,69.12
2022-09-11T15:26:37.422Z,69.60
2022-09-11T15:29:10.094Z,70.94
2022-09-11T15:31:39.614Z,69.87
2022-09-11T15:34:07.988Z,70.14
2022-09-11T15:36:41.705Z,69.98
2022-09-11T15:39:16.761Z,70.81
2022-09-11T15:41:45.514Z,70.29
2022-09-11T15:44:24.663Z,70.34
2022-09-11T15:46:55.450Z,70.45
2022-09-11T15:49:25.583Z,71.08
2022-09-11T15:51:59.777Z,70.87
2022-09-11T15:54:28.688Z,70.93
2022-09-11T15:56:57.230Z,71.23
2022-09-11T15:59:25.862Z,70.01
2022-09-11T16:01:54.610Z,70.56
2022-09-11T16:04:28.792Z,70.58
2022-09-11T16:06:57.352Z,71.73
2022-09-11T16:09:30.724Z,70.92
2022-09-11T16:12:01.818Z,71.38
2022-09-11T16:14:38.099Z,71.04
2022-09-11T16:17:08.407Z,71.72
2022-09-11T16:19:38.789Z,72.47
2022-09-11T16:22:08.954Z,72.37
2022-09-11T16:24:37.916Z,72.97
2022-09-11T16:27:10.364Z,74.17
2022-09-11T16:32:29.632Z,74.98
2022-09-11T16:34:59.741Z,75.38
2022-09-11T16:37:31.161Z,75.63
2022-09-11T16:40:02.730Z,76.59
2022-09-11T16:42:33.165Z,76.95
2022-09-11T16:45:01.543Z,78.28
2022-09-11T16:47:30.592Z,78.38
2022-09-11T16:50:07.720Z,79.34
2022-09-11T16:52:37.333Z,79.88
2022-09-11T16:55:09.846Z,80.12
2022-09-11T16:57:39.781Z,80.39
2022-09-11T17:00:10.385Z,80.65
2022-09-11T17:02:39.240Z,80.80
2022-09-11T17:05:09.338Z,81.35
2022-09-11T17:07:37.844Z,81.48
2022-09-11T17:10:07.231Z,82.60
2022-09-11T17:12:35.626Z,82.74
2022-09-11T17:15:05.246Z,83.25
2022-09-11T17:17:37.189Z,83.85
2022-09-11T17:20:09.434Z,83.10
2022-09-11T17:22:37.535Z,83.29
2022-09-11T17:25:07.020Z,84.23
2022-09-11T17:27:36.491Z,84.03
2022-09-11T17:30:06.452Z,83.96
2022-09-11T17:32:34.823Z,84.04
2022-09-11T17:35:02.508Z,83.72
2022-09-11T17:37:33.185Z,83.66
2022-09-11T17:40:02.348Z,83.89
2022-09-11T17:42:30.419Z,84.48
2022-09-11T17:44:58.829Z,84.92
2022-09-11T17:47:32.959Z,84.30
2022-09-11T17:50:05.298Z,85.02
2022-09-11T17:52:35.151Z,85.57
2022-09-11T17:55:06.018Z,85.00
2022-09-11T17:57:34.225Z,84.17
2022-09-11T18:00:02.774Z,84.14
2022-09-11T18:02:30.407Z,84.78
2022-09-11T18:05:02.621Z,84.42
2022-09-11T18:07:31.022Z,84.43
2022-09-11T18:09:58.932Z,84.61
2022-09-11T18:12:28.393Z,83.30
2022-09-11T18:14:57.149Z,82.73
2022-09-11T18:17:27.633Z,82.68
2022-09-11T18:19:55.876Z,82.59
2022-09-11T18:22:23.577Z,83.20
2022-09-11T18:24:51.198Z,83.63
2022-09-11T18:27:19.848Z,83.05
2022-09-11T18:29:50.072Z,83.50
2022-09-11T18:32:19.849Z,83.64
2022-09-11T18:34:48.648Z,84.48
2022-09-11T18:37:17.550Z,84.71
2022-09-11T18:39:47.057Z,84.45
2022-09-11T18:42:14.728Z,84.93
2022-09-11T18:44:43.021Z,85.19
2022-09-11T18:47:10.783Z,85.80
2022-09-11T18:49:38.549Z,87.05
2022-09-11T18:52:07.353Z,87.27
2022-09-11T18:54:35.097Z,86.73
2022-09-11T18:57:03.608Z,86.74
2022-09-11T18:59:31.228Z,86.74
2022-09-11T19:02:00.270Z,86.44
2022-09-11T19:04:29.720Z,86.59
2022-09-11T19:06:57.329Z,86.56
2022-09-11T19:09:24.979Z,86.64
2022-09-11T19:11:54.880Z,87.83
2022-09-11T19:14:22.526Z,87.28
2022-09-11T19:16:50.197Z,88.22
2022-09-11T19:19:17.946Z,88.07
2022-09-11T19:21:45.760Z,87.90
2022-09-11T19:24:13.340Z,87.93
2022-09-11T19:26:43.714Z,88.83
2022-09-11T19:29:15.931Z,88.74
2022-09-11T19:31:46.747Z,86.73
2022-09-11T19:34:17.178Z,86.85
2022-09-11T19:36:45.340Z,86.52
2022-09-11T19:39:13.147Z,87.14
2022-09-11T19:41:42.665Z,86.76
2022-09-11T19:44:13.993Z,86.55
2022-09-11T19:46:43.226Z,87.33
2022-09-11T19:49:11.663Z,87.77
2022-09-11T19:51:43.079Z,88.36
2022-09-11T19:54:14.513Z,88.17
2022-09-11T19:56:44.568Z,87.86
2022-09-11T19:59:14.488Z,88.24
2022-09-11T20:01:43.237Z,88.96
2022-09-11T20:04:12.529Z,88.90
2022-09-11T20:06:40.842Z,88.64
2022-09-11T20:11:57.119Z,89.43
2022-09-11T20:14:24.909Z,88.71
2022-09-11T20:16:52.579Z,88.68
2022-09-11T20:19:20.717Z,88.76
2022-09-11T20:21:48.338Z,88.66
2022-09-11T20:24:16.489Z,89.46
2022-09-11T20:26:45.899Z,89.47
2022-09-11T20:29:16.106Z,89.25
2022-09-11T20:31:47.926Z,89.94
2022-09-11T20:34:22.138Z,90.29
2022-09-11T20:36:49.823Z,90.36
2022-09-11T20:39:17.948Z,90.06
2022-09-11T20:41:45.874Z,90.67
2022-09-11T20:44:13.536Z,91.25
2022-09-11T20:46:43.700Z,91.29
2022-09-11T20:49:12.265Z,90.60
2022-09-11T20:51:41.789Z,90.28
2022-09-11T20:54:11.187Z,91.23
2022-09-11T20:56:39.089Z,90.94
2022-09-11T20:59:07.039Z,91.56
2022-09-11T21:01:35.391Z,91.52
2022-09-11T21:04:04.958Z,91.51
2022-09-11T21:06:36.048Z,92.24
2022-09-11T21:09:11.578Z,91.44
2022-09-11T21:11:43.936Z,91.49
2022-09-11T21:14:14.908Z,91.24
2022-09-11T21:16:44.336Z,91.35
2022-09-11T21:19:11.995Z,91.54
2022-09-11T21:21:40.666Z,91.30
2022-09-11T21:24:14.056Z,91.38
2022-09-11T21:26:43.564Z,90.66
2022-09-11T21:29:13.807Z,90.09
2022-09-11T21:31:41.580Z,90.97
2022-09-11T21:34:10.895Z,90.50
2022-09-11T21:36:38.738Z,91.02
2022-09-11T21:39:06.817Z,90.77
2022-09-11T21:41:34.722Z,90.62
2022-09-11T21:44:02.767Z,90.67
2022-09-11T21:46:30.457Z,90.20
2022-09-11T21:48:58.172Z,90.89
2022-09-11T21:51:25.913Z,91.48
2022-09-11T21:53:59.118Z,91.81
2022-09-11T21:56:31.886Z,91.97
2022-09-11T21:59:01.116Z,91.71
2022-09-11T22:01:29.806Z,91.25
2022-09-11T22:04:00.357Z,91.70
2022-09-11T22:06:30.124Z,92.21
2022-09-11T22:08:58.103Z,91.47
2022-09-11T22:11:26.536Z,91.65
2022-09-11T22:13:54.679Z,92.26
2022-09-11T22:16:25.973Z,92.20
2022-09-11T22:18:55.288Z,92.35
2022-09-11T22:21:23.014Z,92.62
2022-09-11T22:23:50.898Z,92.40
2022-09-11T22:26:23.997Z,92.88
2022-09-11T22:28:52.682Z,92.71
2022-09-11T22:31:24.917Z,92.55
2022-09-11T22:33:54.059Z,92.84
2022-09-11T22:36:28.038Z,93.30
2022-09-11T22:38:59.166Z,93.48
2022-09-11T22:41:28.239Z,93.66
2022-09-11T22:43:56.265Z,93.39
2022-09-11T22:46:27.499Z,94.45
2022-09-11T22:48:56.120Z,94.47
2022-09-11T22:51:23.894Z,94.78
2022-09-11T22:53:52.021Z,94.00
2022-09-11T22:56:19.712Z,94.40
2022-09-11T22:58:47.633Z,95.26
2022-09-11T23:01:22.156Z,95.88
2022-09-11T23:03:54.715Z,95.54
2022-09-11T23:06:44.525Z,95.63
2022-09-11T23:09:16.992Z,95.05
2022-09-11T23:11:46.824Z,94.30
2022-09-11T23:14:15.133Z,93.87
2022-09-11T23:16:43.986Z,93.63
2022-09-11T23:19:15.064Z,92.90
2022-09-11T23:21:43.768Z,92.60
2022-09-11T23:24:14.728Z,92.77
2022-09-11T23:26:45.444Z,92.83
2022-09-11T23:29:14.103Z,93.39
2022-09-11T23:31:44.438Z,93.61
2022-09-11T23:34:17.193Z,93.37
2022-09-11T23:36:48.331Z,93.41
2022-09-11T23:39:16.279Z,93.53
2022-09-11T23:41:43.900Z,93.82
2022-09-11T23:44:11.942Z,93.45
2022-09-11T23:46:39.569Z,93.38
2022-09-11T23:49:07.571Z,94.00
2022-09-11T23:51:35.267Z,94.86
2022-09-11T23:54:02.966Z,94.33
2022-09-11T23:56:30.623Z,94.23
2022-09-11T23:58:58.342Z,94.97
